createdAt,value
2023-04-23T00:00:17.249Z,100247.97
2023-04-23T00:03:06.293Z,100236.63
2023-04-23T00:05:53.189Z,100231.84
2023-04-23T00:08:39.852Z,100248.72
2023-04-23T00:11:24.128Z,100242.72
2023-04-23T00:14:08.292Z,100223.03
2023-04-23T00:16:54.084Z,100244.31
2023-04-23T00:19:37.890Z,100242.75
2023-04-23T00:22:22.221Z,100210.13
2023-04-23T00:25:06.716Z,100231.47
2023-04-23T00:27:50.755Z,100236.78
2023-04-23T00:30:34.894Z,100235.50
2023-04-23T00:33:20.945Z,100207.25
2023-04-23T00:36:04.831Z,100213.75
2023-04-23T00:38:48.638Z,100239.22
2023-04-23T00:41:32.910Z,100239.44
2023-04-23T00:44:16.867Z,100210.41
2023-04-23T00:47:01.960Z,100232.44
2023-04-23T00:49:47.614Z,100238.22
2023-04-23T00:52:31.794Z,100230.84
2023-04-23T00:55:15.968Z,100231.53
2023-04-23T00:58:00.856Z,100236.50
2023-04-23T01:00:48.600Z,100240.03
2023-04-23T01:03:33.358Z,100227.56
2023-04-23T01:06:19.070Z,100228.16
2023-04-23T01:09:03.660Z,100238.16
2023-04-23T01:11:48.604Z,100216.06
2023-04-23T01:14:32.856Z,100239.63
2023-04-23T01:17:17.181Z,100232.09
2023-04-23T01:20:01.068Z,100222.25
2023-04-23T01:22:49.467Z,100214.59
2023-04-23T01:25:33.541Z,100231.69
2023-04-23T01:28:17.649Z,100227.38
2023-04-23T01:31:02.532Z,100181.34
2023-04-23T01:33:47.977Z,100227.22
2023-04-23T01:36:32.646Z,100187.44
2023-04-23T01:39:18.353Z,100237.41
2023-04-23T01:42:02.891Z,100235.59
2023-04-23T01:44:47.259Z,100233.88
2023-04-23T01:47:32.339Z,100226.19
2023-04-23T01:50:16.644Z,100243.28
2023-04-23T01:53:00.545Z,100238.25
2023-04-23T01:55:48.203Z,100232.06
2023-04-23T01:58:32.430Z,100244.63
2023-04-23T02:01:16.396Z,100237.59
2023-04-23T02:04:00.443Z,100237.47
2023-04-23T02:06:47.231Z,100197.66
2023-04-23T02:09:31.195Z,100244.34
2023-04-23T02:12:19.565Z,100239.19
2023-04-23T02:15:03.774Z,100222.47
2023-04-23T02:17:52.437Z,100246.72
2023-04-23T02:20:38.913Z,100240.50
2023-04-23T02:23:22.816Z,100246.53
2023-04-23T02:26:07.907Z,100247.59
2023-04-23T02:28:53.325Z,100246.47
2023-04-23T02:31:37.365Z,100236.81
2023-04-23T02:34:21.249Z,100249.19
2023-04-23T02:37:06.306Z,100248.66
2023-04-23T02:39:50.452Z,100248.72
2023-04-23T02:42:34.496Z,100250.41
2023-04-23T02:45:20.002Z,100228.81
2023-04-23T02:48:04.370Z,100253.25
2023-04-23T02:50:48.400Z,100254.00
2023-04-23T02:53:32.432Z,100248.13
2023-04-23T02:56:16.632Z,100237.47
2023-04-23T02:59:01.525Z,100241.28
2023-04-23T03:01:46.938Z,100251.66
2023-04-23T03:04:32.024Z,100246.78
2023-04-23T03:07:17.512Z,100256.50
2023-04-23T03:10:01.501Z,100210.31
2023-04-23T03:12:48.476Z,100244.44
2023-04-23T03:15:32.721Z,100250.22
2023-04-23T03:18:18.106Z,100250.50
2023-04-23T03:21:05.462Z,100225.31
2023-04-23T03:23:49.424Z,100245.69
2023-04-23T03:26:34.769Z,100254.47
2023-04-23T03:29:18.798Z,100252.66
2023-04-23T03:32:02.994Z,100207.00
2023-04-23T03:34:49.038Z,100241.91
2023-04-23T03:37:33.508Z,100255.06
2023-04-23T03:40:17.948Z,100263.75
2023-04-23T03:43:05.193Z,100259.00
2023-04-23T03:46:09.080Z,100269.88
2023-04-23T03:48:56.880Z,100220.78
2023-04-23T03:51:45.748Z,100273.84
2023-04-23T03:54:29.924Z,100280.94
2023-04-23T03:57:33.239Z,100264.41
2023-04-23T04:00:33.798Z,100280.28
2023-04-23T04:03:17.999Z,100283.09
2023-04-23T04:06:02.235Z,100285.22
2023-04-23T04:08:47.850Z,100247.19
2023-04-23T04:11:31.822Z,100245.97
2023-04-23T04:14:15.749Z,100290.53
2023-04-23T04:17:00.237Z,100296.09
2023-04-23T04:19:44.222Z,100290.88
2023-04-23T04:22:28.179Z,100293.47
2023-04-23T04:25:13.494Z,100302.53
2023-04-23T04:27:57.658Z,100302.53
2023-04-23T04:30:42.618Z,100302.41
2023-04-23T04:33:27.016Z,100284.69
2023-04-23T04:36:11.099Z,100306.28
2023-04-23T04:38:56.121Z,100295.50
2023-04-23T04:41:41.729Z,100304.94
2023-04-23T04:44:25.573Z,100308.28
2023-04-23T04:47:09.537Z,100314.81
2023-04-23T04:49:57.178Z,100317.06
2023-04-23T04:52:41.128Z,100319.09
2023-04-23T04:55:25.116Z,100320.16
2023-04-23T04:58:10.383Z,100294.00
2023-04-23T05:00:55.912Z,100310.28
2023-04-23T05:03:40.126Z,100317.69
2023-04-23T05:06:24.135Z,100292.03
2023-04-23T05:09:08.320Z,100319.84
2023-04-23T05:11:52.968Z,100310.78
2023-04-23T05:14:38.261Z,100303.13
2023-04-23T05:17:22.432Z,100267.78
2023-04-23T05:20:08.436Z,100313.41
2023-04-23T05:22:52.324Z,100319.53
2023-04-23T05:25:36.226Z,100299.88
2023-04-23T05:28:20.029Z,100302.81
2023-04-23T05:31:05.440Z,100311.94
2023-04-23T05:33:50.685Z,100306.03
2023-04-23T05:36:35.057Z,100324.16
2023-04-23T05:39:18.894Z,100319.91
2023-04-23T05:42:03.213Z,100323.31
2023-04-23T05:44:47.256Z,100323.13
2023-04-23T05:47:32.513Z,100319.91
2023-04-23T05:50:17.135Z,100327.69
2023-04-23T05:53:00.957Z,100328.53
2023-04-23T05:55:44.826Z,100322.09
2023-04-23T05:58:28.596Z,100325.34
2023-04-23T06:01:12.514Z,100219.03
2023-04-23T06:03:58.068Z,100331.72
2023-04-23T06:06:42.412Z,100325.75
2023-04-23T06:09:26.436Z,100330.97
2023-04-23T06:12:11.942Z,100331.81
2023-04-23T06:14:56.813Z,100323.22
2023-04-23T06:17:41.907Z,100324.22
2023-04-23T06:20:27.253Z,100324.22
2023-04-23T06:23:11.127Z,100329.59
2023-04-23T06:25:55.045Z,100331.88
2023-04-23T06:28:39.628Z,100333.75
2023-04-23T06:31:43.876Z,100332.25
2023-04-23T06:34:27.832Z,100323.91
2023-04-23T06:37:13.013Z,100348.00
2023-04-23T06:39:56.840Z,100334.09
2023-04-23T06:42:40.797Z,100331.88
2023-04-23T06:45:35.374Z,100334.41
2023-04-23T06:48:19.346Z,100341.09
2023-04-23T06:51:03.258Z,100327.38
2023-04-23T06:53:48.661Z,100339.38
2023-04-23T06:56:32.579Z,100341.81
2023-04-23T06:59:17.023Z,100330.78
2023-04-23T07:02:04.245Z,100341.13
2023-04-23T07:04:48.156Z,100328.66
2023-04-23T07:07:32.554Z,100349.25
2023-04-23T07:10:18.235Z,100346.75
2023-04-23T07:13:03.688Z,100350.59
2023-04-23T07:15:49.116Z,100305.03
2023-04-23T07:18:33.827Z,100341.88
2023-04-23T07:21:18.180Z,100343.13
2023-04-23T07:24:07.045Z,100345.91
2023-04-23T07:26:52.798Z,100345.84
2023-04-23T07:29:36.649Z,100346.63
2023-04-23T07:32:22.165Z,100331.41
2023-04-23T07:35:07.269Z,100349.47
2023-04-23T07:37:53.938Z,100349.50
2023-04-23T07:40:38.175Z,100344.81
2023-04-23T07:43:23.423Z,100338.25
2023-04-23T07:46:08.931Z,100347.34
2023-04-23T07:48:53.146Z,100342.94
2023-04-23T07:51:37.002Z,100348.34
2023-04-23T07:54:20.889Z,100331.59
2023-04-23T07:57:04.810Z,100328.69
2023-04-23T07:59:50.210Z,100328.16
2023-04-23T08:02:34.081Z,100321.66
2023-04-23T08:05:18.172Z,100330.38
2023-04-23T08:08:02.039Z,100312.28
2023-04-23T08:10:46.855Z,100311.63
2023-04-23T08:13:30.737Z,100321.59
2023-04-23T08:16:16.529Z,100277.50
2023-04-23T08:21:47.283Z,100313.44
2023-04-23T08:24:31.243Z,100310.81
2023-04-23T08:27:15.189Z,100317.06
2023-04-23T08:29:58.926Z,100310.56
2023-04-23T08:32:44.357Z,100305.72
2023-04-23T08:35:28.177Z,100297.78
2023-04-23T08:38:12.053Z,100309.94
2023-04-23T08:40:58.940Z,100298.00
2023-04-23T08:43:52.920Z,100306.00
2023-04-23T08:46:38.647Z,100300.00
2023-04-23T08:49:24.333Z,100306.41
2023-04-23T08:52:18.176Z,100313.25
2023-04-23T08:55:03.775Z,100323.69
2023-04-23T08:57:49.767Z,100311.66
2023-04-23T09:00:35.584Z,100306.78
2023-04-23T09:03:20.887Z,100341.78
2023-04-23T09:06:06.639Z,100342.41
2023-04-23T09:08:50.796Z,100326.75
2023-04-23T09:11:37.270Z,100328.72
2023-04-23T09:14:22.713Z,100347.09
2023-04-23T09:17:07.064Z,100319.91
2023-04-23T09:19:52.385Z,100340.53
2023-04-23T09:22:47.114Z,100342.44
2023-04-23T09:25:31.455Z,100347.56
2023-04-23T09:28:15.569Z,100332.22
2023-04-23T09:31:00.936Z,100339.63
2023-04-23T09:33:45.328Z,100358.00
2023-04-23T09:36:29.190Z,100349.00
2023-04-23T09:39:15.410Z,100346.72
2023-04-23T09:42:05.643Z,100346.81
2023-04-23T09:44:58.449Z,100337.22
2023-04-23T09:47:50.774Z,100333.94
2023-04-23T09:50:37.071Z,100318.72
2023-04-23T09:53:21.317Z,100344.69
2023-04-23T09:56:08.507Z,100334.34
2023-04-23T09:58:52.388Z,100327.84
2023-04-23T10:01:36.315Z,100310.34
2023-04-23T10:04:22.464Z,100309.84
2023-04-23T10:10:00.535Z,100306.34
2023-04-23T10:12:54.898Z,100302.88
2023-04-23T10:15:39.682Z,100309.31
2023-04-23T10:18:23.557Z,100294.63
2023-04-23T10:21:08.424Z,100296.63
2023-04-23T10:23:52.851Z,100294.59
2023-04-23T10:26:40.516Z,100288.19
2023-04-23T10:29:29.215Z,100294.84
2023-04-23T10:32:13.959Z,100282.97
2023-04-23T10:34:57.968Z,100272.41
2023-04-23T10:37:42.844Z,100282.41
2023-04-23T10:40:31.748Z,100272.69
2023-04-23T10:43:16.231Z,100244.97
2023-04-23T10:46:01.724Z,100253.72
2023-04-23T10:49:07.678Z,100278.63
2023-04-23T10:52:18.918Z,100279.88
2023-04-23T10:55:03.480Z,100274.53
2023-04-23T10:58:02.884Z,100286.53
2023-04-23T11:00:47.833Z,100289.94
2023-04-23T11:03:43.599Z,100259.63
2023-04-23T11:06:54.899Z,100274.88
2023-04-23T11:09:44.520Z,100271.34
2023-04-23T11:12:35.132Z,100268.81
2023-04-23T11:15:20.912Z,100247.31
2023-04-23T11:18:04.832Z,100242.34
2023-04-23T11:20:51.533Z,100249.31
2023-04-23T11:23:35.442Z,100243.06
2023-04-23T11:26:19.586Z,100264.34
2023-04-23T11:29:04.888Z,100268.47
2023-04-23T11:32:01.524Z,100249.25
2023-04-23T11:34:50.029Z,100259.00
2023-04-23T11:37:39.681Z,100246.06
2023-04-23T11:40:24.425Z,100253.34
2023-04-23T11:43:09.685Z,100249.41
2023-04-23T11:45:53.857Z,100256.75
2023-04-23T11:48:37.760Z,100266.66
2023-04-23T11:51:27.314Z,100255.22
2023-04-23T11:54:13.900Z,100272.53
2023-04-23T11:56:59.864Z,100268.84
2023-04-23T11:59:44.213Z,100260.47
2023-04-23T12:02:28.879Z,100259.78
2023-04-23T12:05:13.029Z,100249.91
2023-04-23T12:08:07.649Z,100252.69
2023-04-23T12:10:54.517Z,100239.06
2023-04-23T12:13:42.903Z,100239.16
2023-04-23T12:16:36.247Z,100245.00
2023-04-23T12:19:22.050Z,100230.03
2023-04-23T12:22:08.280Z,100228.38
2023-04-23T12:24:53.601Z,100213.97
2023-04-23T12:27:42.669Z,100175.56
2023-04-23T12:30:29.940Z,100219.72
2023-04-23T12:33:13.857Z,100215.19
2023-04-23T12:35:58.300Z,100209.66
2023-04-23T12:38:42.621Z,100177.13
2023-04-23T12:41:26.485Z,100205.25
2023-04-23T12:44:12.229Z,100188.81
2023-04-23T12:46:58.131Z,100179.78
2023-04-23T12:49:44.060Z,100200.53
2023-04-23T12:52:30.622Z,100195.22
2023-04-23T12:55:14.516Z,100197.09
2023-04-23T12:58:00.747Z,100170.16
2023-04-23T13:00:46.482Z,100193.94
2023-04-23T13:03:30.502Z,100192.91
2023-04-23T13:06:14.362Z,100190.25
2023-04-23T13:08:58.300Z,100186.81
2023-04-23T13:11:42.688Z,100188.56
2023-04-23T13:14:27.249Z,100186.47
2023-04-23T13:17:12.600Z,100194.00
2023-04-23T13:19:57.297Z,100179.28
2023-04-23T13:22:41.224Z,100187.25
2023-04-23T13:25:25.140Z,100186.78
2023-04-23T13:28:09.089Z,100185.63
2023-04-23T13:30:52.987Z,100181.66
2023-04-23T13:33:38.252Z,100178.41
2023-04-23T13:36:22.395Z,100188.22
2023-04-23T13:39:07.311Z,100186.81
2023-04-23T13:42:06.065Z,100179.66
2023-04-23T13:44:52.654Z,100170.06
2023-04-23T13:47:36.720Z,100186.06
2023-04-23T13:50:22.420Z,100189.19
2023-04-23T13:53:06.397Z,100177.97
2023-04-23T13:55:50.233Z,100183.78
2023-04-23T13:58:34.100Z,100188.59
2023-04-23T14:01:18.018Z,100182.81
2023-04-23T14:04:04.432Z,100188.69
2023-04-23T14:06:50.137Z,100188.53
2023-04-23T14:09:34.124Z,100182.78
2023-04-23T14:12:18.720Z,100186.19
2023-04-23T14:15:02.966Z,100174.28
2023-04-23T14:17:49.316Z,100192.00
2023-04-23T14:20:33.355Z,100182.31
2023-04-23T14:23:50.519Z,100182.25
2023-04-23T14:26:48.052Z,100184.63
2023-04-23T14:29:37.909Z,100184.00
2023-04-23T14:32:21.876Z,100185.69
2023-04-23T14:35:06.470Z,100192.00
2023-04-23T14:37:50.578Z,100192.44
2023-04-23T14:40:35.877Z,100197.19
2023-04-23T14:43:19.988Z,100191.88
2023-04-23T14:46:03.910Z,100186.19
2023-04-23T14:48:48.571Z,100173.97
2023-04-23T14:51:33.917Z,100194.69
2023-04-23T14:54:18.190Z,100159.81
2023-04-23T14:57:03.679Z,100194.09
2023-04-23T14:59:47.778Z,100199.41
2023-04-23T15:02:32.988Z,100181.09
2023-04-23T15:05:17.036Z,100159.28
2023-04-23T15:08:01.574Z,100197.81
2023-04-23T15:10:45.705Z,100186.97
2023-04-23T15:13:40.213Z,100193.00
2023-04-23T15:16:47.386Z,100186.19
2023-04-23T15:19:32.987Z,100194.34
2023-04-23T15:22:16.868Z,100183.97
2023-04-23T15:25:00.815Z,100203.38
2023-04-23T15:27:46.062Z,100205.91
2023-04-23T15:30:31.448Z,100181.50
2023-04-23T15:33:15.461Z,100184.84
2023-04-23T15:35:59.986Z,100197.31
2023-04-23T15:38:44.231Z,100194.84
2023-04-23T15:41:28.224Z,100186.19
2023-04-23T15:44:12.707Z,100192.97
2023-04-23T15:47:01.337Z,100183.44
2023-04-23T15:49:45.194Z,100197.72
2023-04-23T15:52:29.107Z,100207.69
2023-04-23T15:55:13.061Z,100200.69
2023-04-23T15:57:59.064Z,100195.59
2023-04-23T16:00:42.969Z,100203.38
2023-04-23T16:03:28.398Z,100194.00
2023-04-23T16:06:12.613Z,100195.84
2023-04-23T16:08:56.539Z,100195.59
2023-04-23T16:11:40.898Z,100190.66
2023-04-23T16:14:24.780Z,100193.75
2023-04-23T16:17:08.651Z,100196.16
2023-04-23T16:19:53.926Z,100196.66
2023-04-23T16:22:37.827Z,100195.69
2023-04-23T16:25:21.857Z,100190.34
2023-04-23T16:28:06.300Z,100191.31
2023-04-23T16:30:50.476Z,100157.53
2023-04-23T16:33:34.689Z,100165.84
2023-04-23T16:36:21.423Z,100188.00
2023-04-23T16:39:05.690Z,100146.09
2023-04-23T16:41:49.788Z,100176.22
2023-04-23T16:44:33.855Z,100156.81
2023-04-23T16:47:18.074Z,100183.63
2023-04-23T16:50:02.223Z,100142.78
2023-04-23T16:52:50.737Z,100190.50
2023-04-23T16:55:34.744Z,100192.97
2023-04-23T16:58:19.130Z,100176.13
2023-04-23T17:01:03.224Z,100160.16
2023-04-23T17:03:47.501Z,100172.84
2023-04-23T17:06:33.464Z,100205.47
2023-04-23T17:09:20.215Z,100149.72
2023-04-23T17:12:04.458Z,100192.69
2023-04-23T17:14:48.698Z,100172.69
2023-04-23T17:17:32.862Z,100205.25
2023-04-23T17:20:17.082Z,100166.00
2023-04-23T17:23:01.443Z,100170.06
2023-04-23T17:25:47.191Z,100167.97
2023-04-23T17:28:31.344Z,100172.50
2023-04-23T17:31:15.924Z,100208.31
2023-04-23T17:34:00.116Z,100179.50
2023-04-23T17:36:44.499Z,100202.06
2023-04-23T17:39:28.789Z,100184.25
2023-04-23T17:42:14.857Z,100227.81
2023-04-23T17:44:59.341Z,100211.41
2023-04-23T17:47:43.731Z,100198.63
2023-04-23T17:50:28.612Z,100186.44
2023-04-23T17:53:12.767Z,100200.31
2023-04-23T17:56:00.662Z,100224.22
2023-04-23T17:58:46.700Z,100193.50
2023-04-23T18:01:31.087Z,100223.91
2023-04-23T18:04:17.516Z,100193.84
2023-04-23T18:07:02.361Z,100201.72
2023-04-23T18:09:47.424Z,100194.53
2023-04-23T18:12:32.196Z,100210.56
2023-04-23T18:15:17.907Z,100238.00
2023-04-23T18:18:02.285Z,100193.16
2023-04-23T18:20:47.733Z,100225.19
2023-04-23T18:23:32.521Z,100221.66
2023-04-23T18:26:16.846Z,100202.81
2023-04-23T18:29:01.213Z,100231.66
2023-04-23T18:31:46.864Z,100227.44
2023-04-23T18:34:32.956Z,100224.34
2023-04-23T18:37:34.104Z,100228.94
2023-04-23T18:40:18.812Z,100237.78
2023-04-23T18:43:04.077Z,100232.22
2023-04-23T18:45:48.496Z,100186.69
2023-04-23T18:48:59.635Z,100230.00
2023-04-23T18:51:47.213Z,100231.38
2023-04-23T18:54:31.717Z,100211.72
2023-04-23T18:57:16.165Z,100233.16
2023-04-23T19:00:00.404Z,100201.47
2023-04-23T19:02:44.852Z,100198.09
2023-04-23T19:05:31.986Z,100190.56
2023-04-23T19:08:18.071Z,100195.22
2023-04-23T19:11:02.905Z,100251.13
2023-04-23T19:13:47.119Z,100244.50
2023-04-23T19:16:31.708Z,100244.00
2023-04-23T19:19:16.217Z,100216.88
2023-04-23T19:22:04.283Z,100204.56
2023-04-23T19:24:48.410Z,100196.00
2023-04-23T19:27:32.560Z,100229.91
2023-04-23T19:30:16.884Z,100205.63
2023-04-23T19:33:01.355Z,100191.94
2023-04-23T19:35:46.154Z,100230.28
2023-04-23T19:38:31.759Z,100224.66
2023-04-23T19:41:15.818Z,100233.44
2023-04-23T19:44:00.148Z,100198.94
2023-04-23T19:46:44.524Z,100221.91
2023-04-23T19:49:29.224Z,100199.97
2023-04-23T19:52:18.550Z,100185.53
2023-04-23T19:55:04.527Z,100230.56
2023-04-23T19:57:49.336Z,100182.13
2023-04-23T20:00:42.618Z,100185.91
2023-04-23T20:03:28.090Z,100178.38
2023-04-23T20:06:12.710Z,100184.56
2023-04-23T20:09:07.869Z,100193.63
2023-04-23T20:11:53.852Z,100142.31
2023-04-23T20:14:38.129Z,100212.75
2023-04-23T20:17:22.409Z,100191.00
2023-04-23T20:20:10.882Z,100232.78
2023-04-23T20:22:55.246Z,100229.81
2023-04-23T20:25:41.887Z,100178.97
2023-04-23T20:28:27.638Z,100176.88
2023-04-23T20:31:11.517Z,100192.84
2023-04-23T20:33:55.967Z,100210.50
2023-04-23T20:36:39.877Z,100216.94
2023-04-23T20:39:24.477Z,100213.59
2023-04-23T20:42:08.978Z,100174.94
2023-04-23T20:44:54.203Z,100094.84
2023-04-23T20:47:38.152Z,100212.56
2023-04-23T20:50:22.309Z,100210.28
2023-04-23T20:53:06.711Z,100214.09
2023-04-23T20:55:50.961Z,100209.66
2023-04-23T20:58:34.766Z,100214.16
2023-04-23T21:01:20.084Z,100213.06
2023-04-23T21:04:04.282Z,100203.88
2023-04-23T21:06:48.362Z,100193.84
2023-04-23T21:09:32.384Z,100201.25
2023-04-23T21:12:16.199Z,100156.81
2023-04-23T21:15:00.682Z,100205.03
2023-04-23T21:17:45.898Z,100206.56
2023-04-23T21:20:29.861Z,100205.03
2023-04-23T21:23:13.977Z,100190.88
2023-04-23T21:25:57.840Z,100200.53
2023-04-23T21:28:41.753Z,100182.66
2023-04-23T21:31:35.126Z,100208.09
2023-04-23T21:34:21.491Z,100211.34
2023-04-23T21:37:05.339Z,100214.69
2023-04-23T21:39:49.175Z,100217.56
2023-04-23T21:42:33.100Z,100207.94
2023-04-23T21:45:17.725Z,100207.38
2023-04-23T21:48:02.172Z,100204.91
2023-04-23T21:50:48.251Z,100162.72
2023-04-23T21:53:32.067Z,100194.09
2023-04-23T21:56:16.481Z,100189.56
2023-04-23T21:59:00.732Z,100203.63
2023-04-23T22:01:44.534Z,100202.72
2023-04-23T22:04:29.418Z,100186.94
2023-04-23T22:07:14.810Z,100164.94
2023-04-23T22:10:00.347Z,100161.00
2023-04-23T22:12:45.942Z,100171.88
2023-04-23T22:15:29.966Z,100125.38
2023-04-23T22:18:13.839Z,100165.41
2023-04-23T22:20:57.663Z,100161.72
2023-04-23T22:23:42.906Z,100157.81
2023-04-23T22:26:26.879Z,100151.38
2023-04-23T22:29:10.743Z,100158.63
2023-04-23T22:31:54.599Z,100143.81
2023-04-23T22:34:38.653Z,100150.56
2023-04-23T22:37:22.983Z,100150.88
2023-04-23T22:40:10.467Z,100144.72
2023-04-23T22:42:54.330Z,100103.91
2023-04-23T22:45:38.136Z,100133.56
2023-04-23T22:48:22.202Z,100088.63
2023-04-23T22:51:07.075Z,100134.09
2023-04-23T22:53:50.901Z,100143.34
2023-04-23T22:56:37.696Z,100147.53
2023-04-23T22:59:22.043Z,100115.47
2023-04-23T23:02:06.101Z,100137.00
2023-04-23T23:04:50.055Z,100143.47
2023-04-23T23:07:33.965Z,100133.09
2023-04-23T23:10:17.909Z,100148.75
2023-04-23T23:13:04.746Z,100148.59
2023-04-23T23:15:48.828Z,100153.28
2023-04-23T23:18:32.812Z,100137.22
2023-04-23T23:21:17.124Z,100139.78
2023-04-23T23:24:01.253Z,100147.28
2023-04-23T23:26:45.244Z,100116.56
2023-04-23T23:29:30.513Z,100139.53
2023-04-23T23:32:14.358Z,100141.66
2023-04-23T23:34:58.270Z,100120.13
2023-04-23T23:37:42.248Z,100143.88
2023-04-23T23:40:26.205Z,100098.84
2023-04-23T23:43:10.137Z,100133.47
2023-04-23T23:45:55.297Z,100128.88
2023-04-23T23:48:39.371Z,100135.00
2023-04-23T23:51:23.185Z,100128.94
2023-04-23T23:54:07.631Z,100120.31
2023-04-23T23:56:51.612Z,100114.41
2023-04-23T23:59:35.424Z,100121.81
